createdAt,value
2016-03-19T00:00:42.470Z,0
2016-03-19T00:01:42.504Z,0
2016-03-19T00:02:36.194Z,0
2016-03-19T00:03:36.369Z,0
2016-03-19T00:04:36.231Z,0
2016-03-19T00:05:36.358Z,0
2016-03-19T00:06:42.564Z,0
2016-03-19T00:07:42.613Z,0
2016-03-19T00:08:36.319Z,0
2016-03-19T00:09:49.088Z,0
2016-03-19T00:10:36.200Z,0
2016-03-19T00:11:36.374Z,0
2016-03-19T00:12:36.393Z,0
2016-03-19T00:13:37.208Z,0
2016-03-19T00:14:42.679Z,0
2016-03-19T00:15:36.447Z,0
2016-03-19T00:16:36.466Z,0
2016-03-19T00:17:36.515Z,0
2016-03-19T00:18:36.597Z,0
2016-03-19T00:19:36.537Z,0
2016-03-19T00:20:36.399Z,0
2016-03-19T00:21:37.963Z,0
2016-03-19T00:22:36.576Z,0
2016-03-19T00:23:36.579Z,0
2016-03-19T00:24:36.722Z,0
2016-03-19T00:25:36.615Z,0
2016-03-19T00:26:37.227Z,0
2016-03-19T00:27:36.652Z,0
2016-03-19T00:28:37.311Z,0
2016-03-19T00:29:36.673Z,0
2016-03-19T00:30:49.442Z,0
2016-03-19T00:31:49.523Z,0
2016-03-19T00:33:02.384Z,0
2016-03-19T00:34:02.434Z,0
2016-03-19T00:34:36.718Z,0
2016-03-19T00:35:36.861Z,0
2016-03-19T00:36:36.864Z,0
2016-03-19T00:37:43.053Z,0
2016-03-19T00:38:43.135Z,0
2016-03-19T00:39:37.450Z,0
2016-03-19T00:40:36.859Z,0
2016-03-19T00:41:36.846Z,0
2016-03-19T00:42:43.145Z,0
2016-03-19T00:43:49.601Z,0
2016-03-19T00:44:36.933Z,0
2016-03-19T00:46:02.608Z,0
2016-03-19T00:46:37.172Z,0
2016-03-19T00:48:02.644Z,0
2016-03-19T00:48:37.240Z,0
2016-03-19T00:49:37.039Z,0
2016-03-19T00:50:43.277Z,0
2016-03-19T00:51:37.045Z,0
2016-03-19T00:52:49.782Z,0
2016-03-19T00:53:37.082Z,0
2016-03-19T00:54:37.132Z,0
2016-03-19T00:55:37.118Z,0
2016-03-19T00:56:37.308Z,0
2016-03-19T00:57:37.374Z,0
2016-03-19T00:58:37.142Z,0
2016-03-19T00:59:43.441Z,0
2016-03-19T01:00:37.210Z,0
2016-03-19T01:01:49.978Z,0
2016-03-19T01:02:37.246Z,0
2016-03-19T01:03:37.326Z,0
2016-03-19T01:04:37.268Z,0
2016-03-19T01:05:37.286Z,0
2016-03-19T01:06:38.085Z,0
2016-03-19T01:07:37.307Z,0
2016-03-19T01:08:37.316Z,0
2016-03-19T01:09:37.324Z,0
2016-03-19T01:10:37.381Z,0
2016-03-19T01:11:37.327Z,0
2016-03-19T01:12:37.523Z,0
2016-03-19T01:13:37.349Z,0
2016-03-19T01:14:37.473Z,0
2016-03-19T01:15:43.817Z,0
2016-03-19T01:16:37.457Z,0
2016-03-19T01:17:37.424Z,0
2016-03-19T01:18:37.410Z,0
2016-03-19T01:19:50.193Z,0
2016-03-19T01:20:38.882Z,0
2016-03-19T01:21:37.477Z,0
2016-03-19T01:22:37.479Z,0
2016-03-19T01:23:43.778Z,0
2016-03-19T01:24:43.780Z,0
2016-03-19T01:25:56.736Z,0
2016-03-19T01:26:37.582Z,0
2016-03-19T01:28:03.256Z,0
2016-03-19T01:28:43.962Z,0
2016-03-19T01:29:37.762Z,0
2016-03-19T01:30:37.624Z,0
2016-03-19T01:31:37.658Z,0
2016-03-19T01:32:37.644Z,0
2016-03-19T01:33:37.678Z,0
2016-03-19T01:34:37.681Z,0
2016-03-19T01:35:37.715Z,0
2016-03-19T01:36:50.500Z,0
2016-03-19T01:37:37.720Z,0
2016-03-19T01:38:57.067Z,0
2016-03-19T01:39:37.757Z,0
2016-03-19T01:40:38.385Z,0
2016-03-19T01:41:37.794Z,0
2016-03-19T01:42:37.827Z,0
2016-03-19T01:43:37.830Z,0
2016-03-19T01:44:37.910Z,0
2016-03-19T01:45:37.727Z,0
2016-03-19T01:46:37.916Z,0
2016-03-19T01:47:37.919Z,0
2016-03-19T01:48:37.922Z,0
2016-03-19T01:49:44.221Z,0
2016-03-19T01:50:37.974Z,0
2016-03-19T01:51:37.976Z,0
2016-03-19T01:52:37.980Z,0
2016-03-19T01:53:38.623Z,0
2016-03-19T01:54:38.048Z,0
2016-03-19T01:55:38.018Z,0
2016-03-19T01:56:50.803Z,0
2016-03-19T01:57:44.587Z,0
2016-03-19T01:58:38.073Z,0
2016-03-19T01:59:57.343Z,0
2016-03-19T02:00:38.517Z,0
2016-03-19T02:01:38.145Z,0
2016-03-19T02:02:38.147Z,0
2016-03-19T02:03:44.431Z,0
2016-03-19T02:04:44.465Z,0
2016-03-19T02:05:39.640Z,0
2016-03-19T02:06:50.814Z,0
2016-03-19T02:07:38.441Z,0
2016-03-19T02:08:57.461Z,0
2016-03-19T02:09:38.478Z,0
2016-03-19T02:10:38.388Z,0
2016-03-19T02:11:38.297Z,0
2016-03-19T02:12:38.314Z,0
2016-03-19T02:13:38.317Z,0
2016-03-19T02:14:38.351Z,0
2016-03-19T02:15:38.558Z,0
2016-03-19T02:16:44.638Z,0
2016-03-19T02:17:51.156Z,0
2016-03-19T02:18:38.424Z,0
2016-03-19T02:19:57.646Z,0
2016-03-19T02:20:38.429Z,0
2016-03-19T02:21:38.495Z,0
2016-03-19T02:22:44.763Z,0
2016-03-19T02:23:38.516Z,0
2016-03-19T02:24:51.284Z,0
2016-03-19T02:25:44.818Z,0
2016-03-19T02:26:38.571Z,0
2016-03-19T02:27:57.777Z,0
2016-03-19T02:28:44.842Z,0
2016-03-19T02:29:38.609Z,0
2016-03-19T02:30:38.628Z,0
2016-03-19T02:31:37.975Z,0
2016-03-19T02:32:38.650Z,0
2016-03-19T02:33:38.653Z,0
2016-03-19T02:34:38.656Z,0
2016-03-19T02:35:38.705Z,0
2016-03-19T02:36:38.785Z,0
2016-03-19T02:37:38.756Z,0
2016-03-19T02:38:38.759Z,0
2016-03-19T02:39:51.497Z,0
2016-03-19T02:40:38.764Z,0
2016-03-19T02:41:38.830Z,0
2016-03-19T02:42:39.645Z,0
2016-03-19T02:43:38.852Z,0
2016-03-19T02:44:51.604Z,0
2016-03-19T02:45:39.497Z,0
2016-03-19T02:46:38.875Z,0
2016-03-19T02:47:38.908Z,0
2016-03-19T02:48:40.318Z,0
2016-03-19T02:49:39.118Z,0
2016-03-19T02:50:51.683Z,0
2016-03-19T02:51:38.966Z,0
2016-03-19T02:52:38.984Z,0
2016-03-19T02:53:51.081Z,0
2016-03-19T02:54:38.990Z,0
2016-03-19T02:55:39.040Z,0
2016-03-19T02:56:39.042Z,0
2016-03-19T02:57:39.045Z,0
2016-03-19T02:58:39.095Z,0
2016-03-19T02:59:39.097Z,0
2016-03-19T03:00:51.944Z,0
2016-03-19T03:01:39.150Z,0
2016-03-19T03:03:36.123Z,0
2016-03-19T03:03:48.733Z,0
2016-03-19T03:04:48.720Z,0
2016-03-19T03:05:48.801Z,0
2016-03-19T03:06:48.788Z,0
2016-03-19T03:07:48.759Z,0
2016-03-19T03:09:01.606Z,0
2016-03-19T03:09:48.796Z,0
2016-03-19T03:11:08.080Z,0
2016-03-19T03:11:48.880Z,0
2016-03-19T03:13:14.398Z,0
2016-03-19T03:13:48.885Z,0
2016-03-19T03:14:49.496Z,0
2016-03-19T03:15:48.921Z,0
2016-03-19T03:16:48.955Z,0
2016-03-19T03:17:48.927Z,0
2016-03-19T03:18:48.976Z,0
2016-03-19T03:19:55.386Z,0
2016-03-19T03:20:48.982Z,0
2016-03-19T03:22:01.749Z,0
2016-03-19T03:23:01.752Z,0
2016-03-19T03:24:02.005Z,0
2016-03-19T03:25:08.274Z,0
2016-03-19T03:26:01.823Z,0
2016-03-19T03:27:20.498Z,0
2016-03-19T03:28:01.845Z,0
2016-03-19T03:28:49.143Z,0
2016-03-19T03:30:08.350Z,0
2016-03-19T03:30:49.134Z,0
2016-03-19T03:32:14.856Z,0
2016-03-19T03:32:49.218Z,0
2016-03-19T03:33:49.204Z,0
2016-03-19T03:34:49.848Z,0
2016-03-19T03:36:20.537Z,0
2016-03-19T03:36:49.306Z,0
2016-03-19T03:37:49.278Z,0
2016-03-19T03:38:49.343Z,0
2016-03-19T03:39:49.314Z,0
2016-03-19T03:40:49.348Z,0
2016-03-19T03:41:49.664Z,0
2016-03-19T03:42:49.995Z,0
2016-03-19T03:43:49.372Z,0
2016-03-19T03:44:49.390Z,0
2016-03-19T03:45:55.674Z,0
2016-03-19T03:46:49.427Z,0
2016-03-19T03:47:49.476Z,0
2016-03-19T03:48:49.447Z,0
2016-03-19T03:49:49.699Z,0
2016-03-19T03:51:02.219Z,0
2016-03-19T03:51:49.502Z,0
2016-03-19T03:52:49.521Z,0
2016-03-19T03:53:49.399Z,0
2016-03-19T03:54:49.557Z,0
2016-03-19T03:55:49.779Z,0
2016-03-19T03:56:49.578Z,0
2016-03-19T03:57:49.801Z,0
2016-03-19T03:58:55.912Z,0
2016-03-19T03:59:49.648Z,0
2016-03-19T04:01:02.479Z,0
2016-03-19T04:01:49.670Z,0
2016-03-19T04:03:08.892Z,0
2016-03-19T04:04:18.456Z,0
2016-03-19T04:04:52.788Z,0
2016-03-19T04:05:54.197Z,0
2016-03-19T04:07:05.542Z,0
2016-03-19T04:07:52.842Z,0
2016-03-19T04:09:12.173Z,0
2016-03-19T04:09:54.270Z,0
2016-03-19T04:10:52.881Z,0
2016-03-19T04:11:56.025Z,0
2016-03-19T04:12:52.918Z,0
2016-03-19T04:13:52.937Z,0
2016-03-19T04:14:59.377Z,0
2016-03-19T04:15:52.989Z,0
2016-03-19T04:17:05.711Z,0
2016-03-19T04:17:53.025Z,0
2016-03-19T04:19:12.200Z,0
2016-03-19T04:20:05.656Z,0
2016-03-19T04:21:18.706Z,0
2016-03-19T04:21:53.052Z,0
2016-03-19T04:22:53.070Z,0
2016-03-19T04:23:53.104Z,0
2016-03-19T04:24:53.107Z,0
2016-03-19T04:26:00.000Z,0
2016-03-19T04:26:53.238Z,0
2016-03-19T04:28:05.881Z,0
2016-03-19T04:28:53.180Z,0
2016-03-19T04:29:53.182Z,0
2016-03-19T04:30:53.264Z,0
2016-03-19T04:31:53.220Z,0
2016-03-19T04:32:53.237Z,0
2016-03-19T04:33:53.850Z,0
2016-03-19T04:34:53.274Z,0
2016-03-19T04:35:53.293Z,0
2016-03-19T04:37:06.045Z,0
2016-03-19T04:37:53.329Z,0
2016-03-19T04:39:19.036Z,0
2016-03-19T04:40:06.100Z,0
2016-03-19T04:41:24.683Z,0
2016-03-19T04:42:12.621Z,0
2016-03-19T04:43:53.486Z,0
2016-03-19T04:44:53.427Z,0
2016-03-19T04:45:59.694Z,0
2016-03-19T04:46:54.041Z,0
2016-03-19T04:47:59.747Z,0
2016-03-19T04:48:53.499Z,0
2016-03-19T04:49:53.503Z,0
2016-03-19T04:50:53.536Z,0
2016-03-19T04:51:53.539Z,0
2016-03-19T04:52:53.573Z,0
2016-03-19T04:53:53.607Z,0
2016-03-19T04:54:53.782Z,0
2016-03-19T04:55:53.627Z,0
2016-03-19T04:56:53.646Z,0
2016-03-19T04:57:53.618Z,0
2016-03-19T04:59:06.432Z,4
2016-03-19T04:59:53.670Z,4
2016-03-19T05:01:12.860Z,0
2016-03-19T05:01:53.691Z,4
2016-03-19T05:02:53.757Z,4
2016-03-19T05:04:06.462Z,4
2016-03-19T05:04:53.745Z,8
2016-03-19T05:06:12.999Z,8
2016-03-19T05:06:56.892Z,8
2016-03-19T05:08:09.659Z,12
2016-03-19T05:09:09.678Z,12
2016-03-19T05:10:16.119Z,16
2016-03-19T05:11:16.168Z,16
2016-03-19T05:12:22.155Z,20
2016-03-19T05:12:56.971Z,20
2016-03-19T05:13:57.005Z,24
2016-03-19T05:15:03.258Z,28
2016-03-19T05:16:03.463Z,28
2016-03-19T05:17:16.231Z,36
2016-03-19T05:18:09.796Z,40
2016-03-19T05:18:58.486Z,48
2016-03-19T05:20:10.051Z,52
2016-03-19T05:20:57.227Z,60
2016-03-19T05:22:22.869Z,72
2016-03-19T05:22:57.279Z,80
2016-03-19T05:23:57.140Z,92
2016-03-19T05:24:57.191Z,108
2016-03-19T05:26:03.458Z,120
2016-03-19T05:27:09.929Z,136
2016-03-19T05:27:57.808Z,152
2016-03-19T05:29:16.482Z,176
2016-03-19T05:29:57.235Z,188
2016-03-19T05:31:22.909Z,224
2016-03-19T05:32:10.006Z,248
2016-03-19T05:33:22.977Z,276
2016-03-19T05:34:10.058Z,300
2016-03-19T05:35:22.999Z,332
2016-03-19T05:35:57.407Z,352
2016-03-19T05:37:23.051Z,396
2016-03-19T05:38:07.115Z,420
2016-03-19T05:39:06.931Z,456
2016-03-19T05:40:13.356Z,496
2016-03-19T05:41:13.248Z,536
2016-03-19T05:42:26.300Z,588
2016-03-19T05:43:19.785Z,628
2016-03-19T05:44:07.086Z,668
2016-03-19T05:45:19.978Z,728
2016-03-19T05:46:07.059Z,764
2016-03-19T05:48:10.299Z,856
2016-03-19T05:49:10.364Z,892
2016-03-19T05:50:10.976Z,948
2016-03-19T05:51:10.386Z,1016
2016-03-19T05:52:10.388Z,1092
2016-03-19T05:53:10.406Z,1172
2016-03-19T05:54:23.190Z,1256
2016-03-19T05:55:17.505Z,1300
2016-03-19T05:56:36.120Z,1360
2016-03-19T05:57:10.495Z,1396
2016-03-19T05:58:10.529Z,1484
2016-03-19T05:59:36.207Z,1592
2016-03-19T06:00:23.254Z,1660
2016-03-19T06:02:13.148Z,1824
2016-03-19T06:02:25.730Z,1840
2016-03-19T06:03:25.779Z,1932
2016-03-19T06:04:32.079Z,2020
2016-03-19T06:05:26.003Z,2084
2016-03-19T06:06:25.647Z,2164
2016-03-19T06:07:32.056Z,2268
2016-03-19T06:08:32.073Z,2384
2016-03-19T06:09:25.827Z,2520
2016-03-19T06:10:38.642Z,2696
2016-03-19T06:11:32.160Z,2680
2016-03-19T06:12:45.117Z,2772
2016-03-19T06:13:25.900Z,2840
2016-03-19T06:15:47.467Z,3812
2016-03-19T06:16:47.470Z,3900
2016-03-19T06:17:54.270Z,3468
2016-03-19T06:18:38.147Z,3512
2016-03-19T06:19:38.182Z,3684
2016-03-19T06:20:50.935Z,3824
2016-03-19T06:21:50.938Z,3980
2016-03-19T06:23:41.349Z,5368
2016-03-19T06:24:41.351Z,4732
2016-03-19T06:25:41.402Z,3876
2016-03-19T06:26:41.419Z,3908
2016-03-19T06:27:41.593Z,4140
2016-03-19T06:28:41.440Z,4436
2016-03-19T06:29:41.459Z,4900
2016-03-19T06:30:41.293Z,7068
2016-03-19T06:31:41.482Z,7340
2016-03-19T06:32:41.485Z,6716
2016-03-19T06:33:41.535Z,5512
2016-03-19T06:34:41.553Z,4916
2016-03-19T06:35:41.603Z,4628
2016-03-19T06:36:41.574Z,4512
2016-03-19T06:37:41.639Z,4480
2016-03-19T06:38:41.579Z,4572
2016-03-19T06:39:41.675Z,4788
2016-03-19T06:40:41.695Z,5132
2016-03-19T06:41:41.650Z,5480
2016-03-19T06:42:42.325Z,5772
2016-03-19T06:43:41.687Z,6012
2016-03-19T06:44:41.736Z,6156
2016-03-19T06:45:41.708Z,6204
2016-03-19T06:46:41.757Z,6272
2016-03-19T06:47:41.745Z,6540
2016-03-19T06:48:41.809Z,8324
2016-03-19T06:49:41.797Z,10992
2016-03-19T06:50:41.814Z,8872
2016-03-19T06:51:41.833Z,8312
2016-03-19T06:52:54.586Z,7036
2016-03-19T06:53:41.869Z,7132
2016-03-19T06:54:41.872Z,7580
2016-03-19T06:55:41.891Z,8172
2016-03-19T06:56:41.909Z,8136
2016-03-19T06:57:41.943Z,8372
2016-03-19T06:58:41.946Z,19712
2016-03-19T06:59:41.996Z,19360
2016-03-19T07:00:41.982Z,11952
2016-03-19T07:01:42.141Z,9856
2016-03-19T07:02:42.096Z,8120
2016-03-19T07:03:42.132Z,7448
2016-03-19T07:04:42.102Z,7416
2016-03-19T07:05:42.309Z,7760
2016-03-19T07:06:42.140Z,8120
2016-03-19T07:07:42.126Z,8448
2016-03-19T07:08:42.160Z,8660
2016-03-19T07:09:42.195Z,11856
2016-03-19T07:10:42.212Z,7856
2016-03-19T07:11:42.418Z,7640
2016-03-19T07:12:42.452Z,7508
2016-03-19T07:13:42.220Z,7636
2016-03-19T07:14:42.270Z,7888
2016-03-19T07:15:42.288Z,8216
2016-03-19T07:16:42.307Z,8644
2016-03-19T07:17:42.341Z,9148
2016-03-19T07:18:42.359Z,10492
2016-03-19T07:19:42.361Z,8564
2016-03-19T07:20:42.395Z,7996
2016-03-19T07:21:42.430Z,7588
2016-03-19T07:22:42.433Z,7404
2016-03-19T07:23:42.528Z,7544
2016-03-19T07:24:42.453Z,7980
2016-03-19T07:25:42.472Z,8524
2016-03-19T07:26:42.490Z,8964
2016-03-19T07:27:43.758Z,9072
2016-03-19T07:28:42.511Z,9004
2016-03-19T07:29:43.170Z,8844
2016-03-19T07:30:42.594Z,8604
2016-03-19T07:31:42.644Z,8320
2016-03-19T07:32:42.647Z,8048
2016-03-19T07:33:44.055Z,7872
2016-03-19T07:34:55.371Z,7984
2016-03-19T07:35:42.655Z,8160
2016-03-19T07:36:42.704Z,8508
2016-03-19T07:37:42.551Z,8976
2016-03-19T07:38:42.741Z,9520
2016-03-19T07:39:42.712Z,9744
2016-03-19T07:40:42.746Z,9720
2016-03-19T07:41:42.780Z,9376
2016-03-19T07:42:42.799Z,8932
2016-03-19T07:43:42.832Z,8496
2016-03-19T07:44:42.820Z,8236
2016-03-19T07:45:42.853Z,8448
2016-03-19T07:46:42.872Z,8976
2016-03-19T07:47:42.890Z,9444
2016-03-19T07:48:42.939Z,9628
2016-03-19T07:49:42.973Z,9576
2016-03-19T07:50:42.976Z,9440
2016-03-19T07:51:43.073Z,9308
2016-03-19T07:52:42.966Z,9296
2016-03-19T07:53:43.109Z,9472
2016-03-19T07:54:43.049Z,9668
2016-03-19T07:55:43.068Z,9732
2016-03-19T07:56:43.085Z,9444
2016-03-19T07:57:43.088Z,9028
2016-03-19T07:58:43.091Z,8908
2016-03-19T07:59:43.125Z,8960
2016-03-19T08:00:43.331Z,9060
2016-03-19T08:01:43.162Z,9212
2016-03-19T08:02:43.180Z,9428
2016-03-19T08:03:43.182Z,9736
2016-03-19T08:04:43.218Z,9976
2016-03-19T08:05:43.423Z,10000
2016-03-19T08:06:43.301Z,9860
2016-03-19T08:07:43.256Z,9672
2016-03-19T08:08:43.321Z,9592
2016-03-19T08:09:43.323Z,9724
2016-03-19T08:10:43.342Z,9984
2016-03-19T08:11:43.329Z,10148
2016-03-19T08:12:43.879Z,10248
2016-03-19T08:13:43.523Z,10384
2016-03-19T08:14:43.401Z,10544
2016-03-19T08:15:49.715Z,10740
2016-03-19T08:16:43.468Z,10996
2016-03-19T08:17:43.502Z,11304
2016-03-19T08:18:43.520Z,11488
2016-03-19T08:19:43.601Z,11480
2016-03-19T08:20:43.511Z,11292
2016-03-19T08:21:49.809Z,11084
2016-03-19T08:22:42.937Z,11004
2016-03-19T08:23:43.612Z,11280
2016-03-19T08:24:43.614Z,11748
2016-03-19T08:25:43.633Z,12096
2016-03-19T08:26:43.683Z,11800
2016-03-19T08:27:43.655Z,11000
2016-03-19T08:28:43.688Z,10712
2016-03-19T08:29:42.971Z,10840
2016-03-19T08:30:44.224Z,11608
2016-03-19T08:32:09.446Z,12332
2016-03-19T08:32:43.824Z,12592
2016-03-19T08:33:44.561Z,12644
2016-03-19T08:34:43.845Z,12380
2016-03-19T08:35:43.832Z,12256
2016-03-19T08:36:43.865Z,12444
2016-03-19T08:37:43.868Z,12816
2016-03-19T08:38:43.918Z,12700
2016-03-19T08:39:56.748Z,12492
2016-03-19T08:40:43.923Z,12808
2016-03-19T08:42:09.660Z,13348
2016-03-19T08:42:44.570Z,13272
2016-03-19T08:44:15.384Z,12908
2016-03-19T08:44:47.028Z,12812
2016-03-19T08:45:44.046Z,12564
2016-03-19T08:46:44.048Z,12528
2016-03-19T08:47:44.067Z,12944
2016-03-19T08:48:44.116Z,13612
2016-03-19T08:49:44.104Z,14036
2016-03-19T08:50:44.184Z,14264
2016-03-19T08:51:56.905Z,14168
2016-03-19T08:52:44.378Z,14004
2016-03-19T08:54:03.395Z,13528
2016-03-19T08:54:53.602Z,13140
2016-03-19T08:56:00.072Z,12596
2016-03-19T08:56:47.545Z,12292
2016-03-19T08:58:06.578Z,12204
2016-03-19T08:58:47.362Z,12020
2016-03-19T08:59:47.475Z,11476
2016-03-19T09:00:47.414Z,11048
2016-03-19T09:01:47.464Z,11036
2016-03-19T09:02:47.498Z,11040
2016-03-19T09:03:47.516Z,10940
2016-03-19T09:04:47.504Z,11076
2016-03-19T09:05:47.802Z,11124
2016-03-19T09:06:47.666Z,11380
2016-03-19T09:07:47.715Z,11840
2016-03-19T09:08:47.686Z,11896
2016-03-19T09:10:00.360Z,11832
2016-03-19T09:10:55.301Z,11448
2016-03-19T09:11:47.725Z,11200
2016-03-19T09:13:00.431Z,10700
2016-03-19T09:13:47.730Z,9900
2016-03-19T09:14:47.781Z,9104
2016-03-19T09:15:47.736Z,8616
2016-03-19T09:17:00.567Z,7964
2016-03-19T09:17:47.945Z,7596
2016-03-19T09:18:47.822Z,7380
2016-03-19T09:19:49.262Z,7420
2016-03-19T09:20:47.874Z,7560
2016-03-19T09:22:07.112Z,7724
2016-03-19T09:23:00.645Z,7948
2016-03-19T09:24:13.664Z,8600
2016-03-19T09:25:07.228Z,9060
2016-03-19T09:26:19.497Z,9260
2016-03-19T09:27:16.953Z,9192
2016-03-19T09:28:22.736Z,9136
2016-03-19T09:28:54.536Z,9064
2016-03-19T09:29:54.586Z,8784
2016-03-19T09:30:54.652Z,8420
2016-03-19T09:31:54.669Z,8228
2016-03-19T09:32:54.610Z,8316
2016-03-19T09:33:56.050Z,8556
2016-03-19T09:34:54.646Z,8652
2016-03-19T09:35:54.743Z,8564
2016-03-19T09:36:54.699Z,8312
2016-03-19T09:37:54.702Z,8192
2016-03-19T09:38:54.766Z,8232
2016-03-19T09:39:54.769Z,8424
2016-03-19T09:40:54.772Z,8600
2016-03-19T09:41:54.821Z,8768
2016-03-19T09:42:54.824Z,9044
2016-03-19T09:43:54.827Z,9160
2016-03-19T09:44:54.845Z,9196
2016-03-19T09:45:55.035Z,9100
2016-03-19T09:47:07.647Z,8816
2016-03-19T09:47:55.026Z,8652
2016-03-19T09:49:14.293Z,8552
2016-03-19T09:49:55.578Z,8516
2016-03-19T09:52:04.786Z,9160
2016-03-19T09:53:04.804Z,9652
2016-03-19T09:54:04.791Z,10080
2016-03-19T09:55:04.825Z,10552
2016-03-19T09:56:05.141Z,10740
2016-03-19T09:57:04.924Z,11032
2016-03-19T09:58:05.146Z,11348
2016-03-19T09:59:04.930Z,11672
2016-03-19T10:00:04.995Z,11824
2016-03-19T10:01:05.014Z,11808
2016-03-19T10:02:05.000Z,11516
2016-03-19T10:03:05.019Z,10980
2016-03-19T10:04:05.177Z,10496
2016-03-19T10:05:05.211Z,10380
2016-03-19T10:06:05.214Z,10332
2016-03-19T10:07:05.264Z,10140
2016-03-19T10:08:05.235Z,10344
2016-03-19T10:09:05.207Z,10484
2016-03-19T10:10:05.256Z,10452
2016-03-19T10:11:05.306Z,10628
2016-03-19T10:12:05.871Z,10848
2016-03-19T10:13:18.327Z,11124
2016-03-19T10:14:05.236Z,11312
2016-03-19T10:15:05.287Z,11544
2016-03-19T10:16:05.305Z,11808
2016-03-19T10:17:11.511Z,12204
2016-03-19T10:18:05.264Z,12468
2016-03-19T10:19:05.296Z,12620
2016-03-19T10:20:05.278Z,12676
2016-03-19T10:21:05.306Z,12464
2016-03-19T10:22:05.320Z,12400
2016-03-19T10:23:05.332Z,12256
2016-03-19T10:24:05.611Z,12136
2016-03-19T10:25:05.392Z,12100
2016-03-19T10:26:05.424Z,12252
2016-03-19T10:27:05.409Z,12652
2016-03-19T10:28:05.457Z,13080
2016-03-19T10:29:05.427Z,13188
2016-03-19T10:30:05.444Z,13272
2016-03-19T10:31:05.477Z,13232
2016-03-19T10:32:05.479Z,13052
2016-03-19T10:33:05.559Z,12948
2016-03-19T10:34:05.483Z,12996
2016-03-19T10:35:05.564Z,13240
2016-03-19T10:36:05.566Z,13092
2016-03-19T10:37:05.677Z,12908
2016-03-19T10:38:05.617Z,12816
2016-03-19T10:39:05.651Z,12792
2016-03-19T10:40:05.638Z,12704
2016-03-19T10:41:05.641Z,12620
2016-03-19T10:42:05.721Z,12584
2016-03-19T10:43:05.708Z,12472
2016-03-19T10:44:05.742Z,12152
2016-03-19T10:45:05.730Z,11652
2016-03-19T10:46:05.889Z,11112
2016-03-19T10:47:05.797Z,10916
2016-03-19T10:48:06.160Z,10740
2016-03-19T10:49:05.865Z,10804
2016-03-19T10:50:05.961Z,11152
2016-03-19T10:51:18.621Z,11484
2016-03-19T10:52:05.904Z,11640
2016-03-19T10:53:05.923Z,11580
2016-03-19T10:54:05.941Z,11260
2016-03-19T10:55:05.975Z,11048
2016-03-19T10:56:05.978Z,10892
2016-03-19T10:57:05.965Z,10716
2016-03-19T10:58:18.796Z,10656
2016-03-19T10:59:06.064Z,10700
2016-03-19T11:00:18.785Z,10896
2016-03-19T11:01:06.132Z,11108
2016-03-19T11:02:06.134Z,11292
2016-03-19T11:03:06.215Z,11372
2016-03-19T11:04:06.140Z,11316
2016-03-19T11:05:06.158Z,11256
2016-03-19T11:06:06.192Z,11260
2016-03-19T11:07:06.211Z,11508
2016-03-19T11:08:06.244Z,11828
2016-03-19T11:09:06.247Z,11984
2016-03-19T11:10:06.250Z,12060
2016-03-19T11:11:06.284Z,12376
2016-03-19T11:12:06.317Z,12948
2016-03-19T11:13:06.320Z,13116
2016-03-19T11:14:06.714Z,12724
2016-03-19T11:15:06.372Z,12392
2016-03-19T11:16:06.500Z,12356
2016-03-19T11:17:12.659Z,12148
2016-03-19T11:18:06.411Z,11832
2016-03-19T11:19:06.461Z,11576
2016-03-19T11:20:06.495Z,11424
2016-03-19T11:21:06.499Z,11372
2016-03-19T11:22:06.501Z,11744
2016-03-19T11:23:06.550Z,12328
2016-03-19T11:24:06.521Z,12676
2016-03-19T11:25:06.555Z,12924
2016-03-19T11:26:06.590Z,13080
2016-03-19T11:27:19.310Z,13116
2016-03-19T11:28:06.627Z,13008
2016-03-19T11:29:06.660Z,12984
2016-03-19T11:30:06.663Z,13012
2016-03-19T11:31:06.681Z,13068
2016-03-19T11:32:09.715Z,13540
2016-03-19T11:33:06.920Z,13900
2016-03-19T11:34:25.954Z,13908
2016-03-19T11:35:06.786Z,14180
2016-03-19T11:36:06.789Z,14512
2016-03-19T11:37:06.838Z,14008
2016-03-19T11:38:06.841Z,13476
2016-03-19T11:39:06.843Z,13168
2016-03-19T11:40:06.987Z,13164
2016-03-19T11:41:06.895Z,13188
2016-03-19T11:42:06.914Z,13084
2016-03-19T11:43:06.932Z,12892
2016-03-19T11:44:07.013Z,12492
2016-03-19T11:45:06.999Z,12212
2016-03-19T11:46:07.002Z,12204
2016-03-19T11:47:06.881Z,12344
2016-03-19T11:48:07.024Z,12572
2016-03-19T11:49:07.152Z,12792
2016-03-19T11:50:07.077Z,13004
2016-03-19T11:51:10.672Z,13204
2016-03-19T11:52:07.127Z,13396
2016-03-19T11:53:07.241Z,13612
2016-03-19T11:54:07.180Z,13888
2016-03-19T11:55:07.215Z,13868
2016-03-19T11:56:07.217Z,13692
2016-03-19T11:57:13.532Z,13260
2016-03-19T11:58:07.285Z,12908
2016-03-19T11:59:07.287Z,12868
2016-03-19T12:00:07.306Z,12852
2016-03-19T12:01:07.340Z,13136
2016-03-19T12:02:07.529Z,13344
2016-03-19T12:03:20.096Z,14024
2016-03-19T12:04:07.442Z,14548
2016-03-19T12:05:33.087Z,14612
2016-03-19T12:06:07.447Z,14328
2016-03-19T12:07:07.465Z,13924
2016-03-19T12:08:07.500Z,13628
2016-03-19T12:09:07.330Z,13348
2016-03-19T12:10:07.489Z,12776
2016-03-19T12:11:07.523Z,12076
2016-03-19T12:12:07.589Z,11552
2016-03-19T12:13:07.654Z,11372
2016-03-19T12:14:07.578Z,11388
2016-03-19T12:15:07.612Z,11500
2016-03-19T12:16:07.833Z,11604
2016-03-19T12:17:07.664Z,11652
2016-03-19T12:18:07.697Z,11684
2016-03-19T12:19:07.686Z,11816
2016-03-19T12:20:07.688Z,11940
2016-03-19T12:21:07.738Z,12036
2016-03-19T12:22:07.771Z,12044
2016-03-19T12:23:07.805Z,12040
2016-03-19T12:24:07.824Z,12136
2016-03-19T12:25:07.827Z,12332
2016-03-19T12:26:07.860Z,12484
2016-03-19T12:27:07.846Z,12608
2016-03-19T12:28:07.866Z,12532
2016-03-19T12:29:07.931Z,12636
2016-03-19T12:30:07.918Z,12812
2016-03-19T12:31:07.968Z,12824
2016-03-19T12:32:07.970Z,12716
2016-03-19T12:33:07.988Z,12732
2016-03-19T12:34:08.022Z,12832
2016-03-19T12:35:14.307Z,13052
2016-03-19T12:36:08.059Z,13252
2016-03-19T12:37:20.811Z,13636
2016-03-19T12:38:09.595Z,14004
2016-03-19T12:39:08.129Z,14224
2016-03-19T12:40:27.320Z,14224
2016-03-19T12:41:11.229Z,14012
2016-03-19T12:42:30.450Z,13384
2016-03-19T12:43:11.281Z,12516
2016-03-19T12:44:11.314Z,10948
2016-03-19T12:45:24.053Z,9940
2016-03-19T12:46:12.148Z,10140
2016-03-19T12:47:11.354Z,10412
2016-03-19T12:48:13.451Z,10540
2016-03-19T12:49:12.016Z,10980
2016-03-19T12:50:30.628Z,12260
2016-03-19T12:51:24.162Z,13016
2016-03-19T12:52:42.745Z,13388
2016-03-19T12:53:26.666Z,13400
2016-03-19T12:54:26.686Z,13348
2016-03-19T12:55:26.704Z,13340
2016-03-19T12:56:33.006Z,13404
2016-03-19T12:57:26.709Z,13296
2016-03-19T12:58:33.215Z,13020
2016-03-19T12:59:26.777Z,12708
2016-03-19T13:00:39.596Z,12032
2016-03-19T13:01:33.395Z,11620
2016-03-19T13:02:46.163Z,11324
2016-03-19T13:03:42.806Z,10932
2016-03-19T13:04:55.746Z,10192
2016-03-19T13:05:30.074Z,9960
2016-03-19T13:07:01.439Z,9604
2016-03-19T13:07:45.379Z,9328
2016-03-19T13:09:11.039Z,8376
2016-03-19T13:09:45.384Z,8032
2016-03-19T13:12:00.609Z,7576
2016-03-19T13:13:00.659Z,7512
2016-03-19T13:14:00.677Z,7504
2016-03-19T13:15:13.461Z,7460
2016-03-19T13:16:00.714Z,7352
2016-03-19T13:17:57.703Z,6804
2016-03-19T13:18:29.500Z,6756
2016-03-19T13:19:10.566Z,6732
2016-03-19T13:20:11.771Z,6708
2016-03-19T13:21:10.367Z,6516
2016-03-19T13:22:10.386Z,6192
2016-03-19T13:23:23.138Z,5812
2016-03-19T13:24:10.422Z,5768
2016-03-19T13:25:10.488Z,5844
2016-03-19T13:26:11.303Z,5848
2016-03-19T13:27:10.477Z,5688
2016-03-19T13:28:10.510Z,5476
2016-03-19T13:29:10.982Z,5280
2016-03-19T13:30:23.548Z,5168
2016-03-19T13:31:11.191Z,5072
2016-03-19T13:32:29.788Z,4960
2016-03-19T13:33:23.384Z,4980
2016-03-19T13:34:10.637Z,5024
2016-03-19T13:35:10.670Z,5032
2016-03-19T13:36:10.674Z,5084
2016-03-19T13:37:11.285Z,5232
2016-03-19T13:38:10.742Z,5436
2016-03-19T13:39:10.728Z,5584
2016-03-19T13:40:17.043Z,5668
2016-03-19T13:41:10.968Z,5716
2016-03-19T13:42:17.268Z,5796
2016-03-19T13:43:10.927Z,6000
2016-03-19T13:44:17.492Z,6328
2016-03-19T13:45:10.948Z,6828
2016-03-19T13:46:10.873Z,7320
2016-03-19T13:47:10.953Z,7716
2016-03-19T13:48:10.924Z,7912
2016-03-19T13:49:10.927Z,7948
2016-03-19T13:50:11.180Z,8148
2016-03-19T13:51:10.980Z,8268